createdAt,value
2023-04-16T00:00:08.710Z,57.92
2023-04-16T00:02:17.042Z,65.85
2023-04-16T00:04:19.870Z,62.70
2023-04-16T00:06:23.509Z,60.83
2023-04-16T00:08:26.186Z,49.95
2023-04-16T00:10:28.863Z,59.00
2023-04-16T00:12:34.082Z,51.70
2023-04-16T00:14:36.632Z,56.30
2023-04-16T00:16:39.251Z,50.53
2023-04-16T00:18:42.621Z,51.83
2023-04-16T00:20:45.169Z,49.67
2023-04-16T00:22:47.750Z,49.60
2023-04-16T00:24:51.162Z,48.45
2023-04-16T00:26:53.760Z,48.90
2023-04-16T00:28:58.982Z,48.35
2023-04-16T00:31:02.124Z,50.03
2023-04-16T00:33:05.691Z,43.00
2023-04-16T00:35:09.021Z,46.35
2023-04-16T00:37:12.207Z,50.70
2023-04-16T00:39:14.776Z,50.60
2023-04-16T00:41:19.320Z,50.55
2023-04-16T00:43:25.033Z,47.83
2023-04-16T00:45:30.224Z,48.85
2023-04-16T00:47:32.934Z,48.42
2023-04-16T00:49:36.383Z,49.55
2023-04-16T00:51:39.166Z,50.27
2023-04-16T00:53:43.102Z,53.17
2023-04-16T00:55:46.213Z,49.05
2023-04-16T00:57:48.770Z,38.78
2023-04-16T00:59:52.100Z,44.85
2023-04-16T01:01:57.462Z,46.85
2023-04-16T01:04:00.399Z,48.22
2023-04-16T01:06:03.535Z,47.13
2023-04-16T01:08:06.832Z,45.03
2023-04-16T01:10:09.906Z,45.70
2023-04-16T01:12:12.470Z,50.10
2023-04-16T01:14:15.156Z,46.60
2023-04-16T01:16:17.908Z,50.28
2023-04-16T01:18:24.219Z,51.28
2023-04-16T01:20:27.732Z,48.10
2023-04-16T01:22:35.262Z,53.20
2023-04-16T01:24:38.669Z,50.65
2023-04-16T01:26:41.530Z,52.00
2023-04-16T01:28:44.237Z,51.40
2023-04-16T01:30:46.817Z,53.47
2023-04-16T01:33:00.185Z,54.22
2023-04-16T01:35:03.328Z,45.90
2023-04-16T01:37:05.960Z,47.35
2023-04-16T01:39:14.340Z,45.90
2023-04-16T01:41:19.149Z,44.95
2023-04-16T01:43:22.466Z,48.47
2023-04-16T01:45:25.468Z,53.30
2023-04-16T01:47:28.064Z,54.30
2023-04-16T01:49:31.231Z,47.38
2023-04-16T01:51:34.213Z,55.80
2023-04-16T01:53:37.299Z,46.13
2023-04-16T01:55:42.573Z,53.88
2023-04-16T01:57:45.357Z,61.50
2023-04-16T01:59:49.364Z,52.58
2023-04-16T02:01:53.135Z,54.53
2023-04-16T02:03:56.079Z,58.30
2023-04-16T02:05:58.636Z,56.33
2023-04-16T02:08:01.288Z,66.43
2023-04-16T02:10:05.475Z,53.42
2023-04-16T02:12:12.034Z,52.25
2023-04-16T02:14:14.778Z,56.60
2023-04-16T02:16:19.174Z,58.70
2023-04-16T02:18:32.149Z,63.40
2023-04-16T02:20:40.766Z,58.33
2023-04-16T02:22:43.657Z,66.25
2023-04-16T02:24:50.835Z,71.28
2023-04-16T02:26:58.524Z,61.63
2023-04-16T02:29:03.992Z,66.47
2023-04-16T02:31:19.881Z,70.85
2023-04-16T02:33:26.512Z,48.40
2023-04-16T02:35:37.420Z,70.38
2023-04-16T02:37:41.176Z,80.38
2023-04-16T02:39:44.223Z,83.38
2023-04-16T02:41:46.755Z,89.03
2023-04-16T02:43:49.518Z,81.53
2023-04-16T02:45:54.801Z,78.10
2023-04-16T02:47:57.473Z,86.93
2023-04-16T02:50:00.110Z,87.88
2023-04-16T02:52:02.849Z,76.03
2023-04-16T02:54:05.529Z,61.47
2023-04-16T02:56:08.853Z,71.17
2023-04-16T02:58:13.561Z,66.65
2023-04-16T03:00:16.748Z,50.47
2023-04-16T03:02:22.039Z,77.35
2023-04-16T03:04:25.021Z,70.75
2023-04-16T03:06:27.729Z,82.80
2023-04-16T03:08:30.391Z,80.40
2023-04-16T03:10:33.209Z,86.97
2023-04-16T03:12:36.465Z,57.05
2023-04-16T03:14:42.539Z,63.63
2023-04-16T03:16:45.209Z,66.45
2023-04-16T03:18:51.089Z,66.10
2023-04-16T03:20:55.158Z,64.90
2023-04-16T03:22:57.838Z,64.13
2023-04-16T03:25:00.541Z,73.38
2023-04-16T03:27:03.333Z,62.20
2023-04-16T03:29:06.199Z,65.35
2023-04-16T03:31:11.362Z,54.78
2023-04-16T03:33:14.048Z,66.38
2023-04-16T03:35:19.447Z,67.85
2023-04-16T03:37:22.096Z,61.70
2023-04-16T03:39:26.220Z,59.92
2023-04-16T03:41:28.890Z,63.78
2023-04-16T03:43:31.890Z,55.58
2023-04-16T03:45:35.252Z,63.38
2023-04-16T03:47:37.896Z,60.58
2023-04-16T03:49:40.865Z,69.25
2023-04-16T03:51:46.412Z,58.88
2023-04-16T03:53:49.081Z,67.65
2023-04-16T03:55:53.032Z,59.92
2023-04-16T03:57:57.654Z,69.78
2023-04-16T04:00:00.452Z,60.42
2023-04-16T04:02:11.087Z,76.88
2023-04-16T04:04:14.196Z,61.70
2023-04-16T04:06:17.695Z,62.13
2023-04-16T04:08:23.156Z,68.60
2023-04-16T04:10:27.158Z,58.08
2023-04-16T04:12:29.873Z,64.68
2023-04-16T04:14:32.536Z,74.40
2023-04-16T04:16:36.015Z,63.55
2023-04-16T04:18:44.268Z,51.90
2023-04-16T04:20:47.484Z,56.50
2023-04-16T04:22:54.349Z,65.43
2023-04-16T04:25:06.607Z,57.97
2023-04-16T04:27:15.551Z,64.25
2023-04-16T04:29:19.048Z,59.38
2023-04-16T04:31:24.287Z,66.75
2023-04-16T04:33:29.875Z,67.50
2023-04-16T04:35:40.187Z,59.22
2023-04-16T04:37:45.022Z,55.08
2023-04-16T04:39:57.329Z,54.40
2023-04-16T04:42:08.596Z,67.07
2023-04-16T04:44:11.839Z,62.83
2023-04-16T04:46:15.143Z,56.92
2023-04-16T04:48:18.253Z,58.33
2023-04-16T04:50:22.316Z,56.03
2023-04-16T04:52:25.610Z,54.57
2023-04-16T04:54:35.263Z,57.75
2023-04-16T04:56:38.473Z,59.05
2023-04-16T04:58:45.617Z,56.17
2023-04-16T05:00:49.986Z,62.83
2023-04-16T05:04:59.060Z,42.47
2023-04-16T05:07:02.742Z,49.08
2023-04-16T05:09:06.283Z,52.60
2023-04-16T05:11:15.001Z,48.65
2023-04-16T05:13:21.947Z,51.95
2023-04-16T05:15:27.469Z,55.95
2023-04-16T05:17:30.919Z,52.78
2023-04-16T05:19:37.200Z,61.05
2023-04-16T05:21:41.422Z,61.50
2023-04-16T05:23:45.269Z,62.00
2023-04-16T05:25:48.090Z,56.88
2023-04-16T05:30:06.449Z,47.35
2023-04-16T05:32:15.461Z,50.88
2023-04-16T05:34:18.985Z,59.63
2023-04-16T05:36:22.382Z,49.38
2023-04-16T05:38:28.045Z,51.78
2023-04-16T05:40:31.620Z,56.10
2023-04-16T05:42:34.506Z,53.03
2023-04-16T05:44:39.095Z,66.05
2023-04-16T05:46:42.096Z,56.08
2023-04-16T05:48:47.509Z,55.40
2023-04-16T05:50:54.237Z,67.00
2023-04-16T05:52:59.686Z,60.65
2023-04-16T05:55:02.494Z,59.70
2023-04-16T05:57:08.046Z,65.43
2023-04-16T05:59:20.878Z,66.57
2023-04-16T06:01:28.565Z,62.75
2023-04-16T06:03:34.154Z,65.43
2023-04-16T06:05:39.801Z,54.60
2023-04-16T06:07:42.824Z,70.57
2023-04-16T06:09:48.006Z,72.53
2023-04-16T06:11:53.681Z,88.78
2023-04-16T06:13:56.850Z,81.50
2023-04-16T06:16:02.353Z,92.53
2023-04-16T06:18:11.944Z,79.65
2023-04-16T06:20:15.054Z,60.78
2023-04-16T06:22:24.604Z,67.65
2023-04-16T06:24:30.578Z,71.43
2023-04-16T06:26:36.615Z,58.88
2023-04-16T06:28:39.312Z,72.22
2023-04-16T06:30:45.096Z,73.97
2023-04-16T06:32:51.029Z,75.47
2023-04-16T06:34:59.198Z,64.63
2023-04-16T06:37:03.429Z,69.85
2023-04-16T06:39:09.670Z,57.85
2023-04-16T06:41:25.856Z,82.50
2023-04-16T06:43:33.853Z,65.50
2023-04-16T06:45:39.599Z,90.38
2023-04-16T06:47:42.985Z,77.77
2023-04-16T06:49:48.651Z,91.72
2023-04-16T06:51:53.452Z,88.63
2023-04-16T06:53:57.230Z,83.05
2023-04-16T06:56:03.132Z,83.15
2023-04-16T06:58:08.679Z,95.00
2023-04-16T07:00:19.341Z,100.43
2023-04-16T07:02:32.655Z,83.85
2023-04-16T07:04:36.130Z,86.53
2023-04-16T07:06:40.750Z,84.45
2023-04-16T07:08:46.745Z,94.85
2023-04-16T07:10:52.976Z,102.93
2023-04-16T07:13:02.016Z,91.80
2023-04-16T07:15:10.606Z,100.68
2023-04-16T07:17:16.977Z,102.20
2023-04-16T07:19:22.294Z,102.63
2023-04-16T07:21:29.401Z,86.15
2023-04-16T07:23:35.509Z,81.70
2023-04-16T07:25:38.924Z,71.30
2023-04-16T07:27:42.314Z,74.65
2023-04-16T07:29:47.679Z,81.68
2023-04-16T07:31:50.634Z,74.80
2023-04-16T07:33:56.722Z,77.10
2023-04-16T07:35:59.718Z,71.20
2023-04-16T07:38:05.228Z,68.38
2023-04-16T07:40:12.205Z,60.03
2023-04-16T07:42:16.929Z,70.25
2023-04-16T07:44:26.006Z,67.28
2023-04-16T07:46:45.589Z,67.28
2023-04-16T07:48:52.938Z,65.07
2023-04-16T07:50:57.122Z,65.32
2023-04-16T07:53:03.014Z,43.63
2023-04-16T07:55:06.686Z,56.35
2023-04-16T07:57:12.439Z,57.25
2023-04-16T07:59:23.030Z,58.10
2023-04-16T08:01:28.175Z,60.22
2023-04-16T08:03:35.435Z,63.28
2023-04-16T08:05:41.038Z,60.15
2023-04-16T08:07:44.973Z,60.17
2023-04-16T08:09:54.805Z,55.00
2023-04-16T08:12:00.945Z,55.78
2023-04-16T08:14:06.088Z,47.95
2023-04-16T08:16:09.268Z,53.42
2023-04-16T08:18:18.193Z,51.83
2023-04-16T08:20:23.580Z,48.10
2023-04-16T08:22:26.775Z,44.47
2023-04-16T08:24:30.790Z,46.97
2023-04-16T08:26:34.415Z,46.40
2023-04-16T08:28:37.190Z,53.25
2023-04-16T08:30:42.131Z,45.17
2023-04-16T08:32:45.401Z,52.03
2023-04-16T08:36:57.093Z,44.92
2023-04-16T08:39:00.210Z,41.42
2023-04-16T08:41:11.534Z,46.80
2023-04-16T08:43:19.463Z,44.55
2023-04-16T08:45:22.160Z,46.70
2023-04-16T08:47:27.836Z,46.53
2023-04-16T08:49:35.478Z,50.28
2023-04-16T08:51:49.142Z,48.72
2023-04-16T08:54:05.813Z,49.08
2023-04-16T08:56:11.670Z,60.50
2023-04-16T08:58:16.079Z,57.08
2023-04-16T09:00:22.100Z,54.63
2023-04-16T09:02:28.433Z,57.65
2023-04-16T09:04:33.016Z,58.55
2023-04-16T09:06:41.657Z,57.00
2023-04-16T09:08:45.986Z,62.85
2023-04-16T09:15:03.829Z,41.72
2023-04-16T09:17:07.749Z,40.42
2023-04-16T09:19:16.434Z,61.97
2023-04-16T09:21:23.792Z,44.63
2023-04-16T09:23:26.784Z,49.75
2023-04-16T09:25:37.511Z,56.13
2023-04-16T09:27:44.435Z,55.13
2023-04-16T09:29:50.501Z,49.45
2023-04-16T09:32:07.436Z,43.88
2023-04-16T09:34:15.679Z,37.25
2023-04-16T09:36:23.903Z,46.38
2023-04-16T09:38:27.194Z,33.90
2023-04-16T09:40:36.452Z,42.78
2023-04-16T09:42:45.043Z,48.20
2023-04-16T09:44:50.637Z,47.42
2023-04-16T09:46:56.468Z,45.03
2023-04-16T09:49:05.084Z,46.05
2023-04-16T09:51:07.993Z,39.83
2023-04-16T09:53:10.793Z,42.05
2023-04-16T09:55:14.092Z,42.28
2023-04-16T09:57:22.226Z,35.10
2023-04-16T09:59:31.548Z,35.30
2023-04-16T10:01:36.810Z,25.75
2023-04-16T10:03:41.393Z,41.72
2023-04-16T10:07:50.720Z,20.20
2023-04-16T10:09:53.647Z,25.17
2023-04-16T10:11:57.830Z,24.23
2023-04-16T10:14:03.298Z,34.00
2023-04-16T10:16:09.779Z,25.27
2023-04-16T10:18:13.289Z,33.83
2023-04-16T10:20:18.155Z,21.58
2023-04-16T10:22:22.985Z,32.17
2023-04-16T10:24:35.780Z,25.63
2023-04-16T10:26:42.193Z,15.30
2023-04-16T10:28:47.413Z,34.35
2023-04-16T10:31:01.961Z,25.92
2023-04-16T10:33:08.786Z,25.35
2023-04-16T10:35:16.726Z,23.83
2023-04-16T10:37:21.019Z,23.65
2023-04-16T10:41:32.395Z,14.13
2023-04-16T10:43:41.420Z,15.10
2023-04-16T10:45:45.040Z,17.58
2023-04-16T10:47:48.764Z,27.88
2023-04-16T10:49:54.375Z,19.13
2023-04-16T10:51:58.704Z,29.52
2023-04-16T10:54:05.573Z,22.50
2023-04-16T10:56:15.816Z,16.92
2023-04-16T10:58:28.230Z,21.77
2023-04-16T11:00:32.149Z,22.80
2023-04-16T11:02:35.210Z,33.92
2023-04-16T11:04:39.548Z,16.27
2023-04-16T11:07:05.666Z,18.75
2023-04-16T11:09:40.234Z,28.13
2023-04-16T11:11:43.015Z,61.97
2023-04-16T11:13:46.552Z,20.33
2023-04-16T11:15:49.288Z,30.70
2023-04-16T11:17:52.883Z,37.38
2023-04-16T11:19:56.314Z,40.25
2023-04-16T11:22:01.929Z,32.03
2023-04-16T11:24:04.847Z,51.88
2023-04-16T11:26:22.194Z,42.72
2023-04-16T11:28:39.318Z,32.38
2023-04-16T11:30:46.368Z,36.20
2023-04-16T11:32:50.055Z,30.02
2023-04-16T11:34:53.289Z,36.08
2023-04-16T11:36:56.362Z,41.17
2023-04-16T11:39:06.203Z,46.85
2023-04-16T11:41:13.949Z,34.47
2023-04-16T11:43:17.579Z,35.53
2023-04-16T11:45:21.841Z,33.20
2023-04-16T11:49:30.318Z,26.02
2023-04-16T11:51:32.969Z,29.10
2023-04-16T11:53:36.917Z,39.72
2023-04-16T11:55:46.571Z,39.28
2023-04-16T11:57:52.374Z,37.25
2023-04-16T12:00:02.752Z,28.27
2023-04-16T12:02:15.722Z,38.42
2023-04-16T12:04:24.801Z,37.58
2023-04-16T12:06:27.564Z,30.17
2023-04-16T12:08:32.509Z,35.97
2023-04-16T12:10:36.524Z,41.00
2023-04-16T12:12:41.834Z,32.55
2023-04-16T12:14:51.230Z,36.72
2023-04-16T12:16:57.083Z,28.90
2023-04-16T12:19:02.686Z,38.60
2023-04-16T12:21:08.078Z,31.00
2023-04-16T12:23:11.566Z,30.77
2023-04-16T12:25:15.718Z,31.73
2023-04-16T12:29:24.921Z,30.08
2023-04-16T12:31:38.451Z,35.33
2023-04-16T12:33:44.317Z,33.92
2023-04-16T12:35:49.916Z,33.70
2023-04-16T12:37:55.115Z,31.13
2023-04-16T12:39:58.052Z,26.58
2023-04-16T12:42:01.070Z,49.67
2023-04-16T12:44:09.372Z,41.15
2023-04-16T12:46:15.861Z,23.25
2023-04-16T12:48:20.406Z,35.30
2023-04-16T12:50:26.297Z,29.42
2023-04-16T12:52:29.486Z,31.45
2023-04-16T12:54:32.770Z,33.13
2023-04-16T12:56:36.052Z,33.30
2023-04-16T12:58:42.898Z,33.30
2023-04-16T13:00:45.935Z,26.35
2023-04-16T13:02:51.489Z,29.17
2023-04-16T13:04:54.810Z,31.83
2023-04-16T13:07:00.019Z,25.77
2023-04-16T13:09:02.825Z,30.90
2023-04-16T13:11:08.267Z,27.17
2023-04-16T13:13:10.965Z,33.38
2023-04-16T13:15:13.807Z,35.10
2023-04-16T13:17:16.900Z,29.20
2023-04-16T13:19:24.729Z,33.15
2023-04-16T13:21:27.924Z,32.33
2023-04-16T13:23:33.563Z,30.60
2023-04-16T13:25:39.623Z,43.08
2023-04-16T13:27:42.231Z,30.92
2023-04-16T13:29:45.224Z,28.30
2023-04-16T13:31:52.365Z,32.80
2023-04-16T13:33:56.630Z,35.85
2023-04-16T13:40:09.601Z,24.25
2023-04-16T13:42:12.243Z,34.50
2023-04-16T13:44:14.993Z,30.27
2023-04-16T13:46:19.266Z,32.72
2023-04-16T13:48:25.583Z,32.50
2023-04-16T13:50:32.278Z,36.22
2023-04-16T13:52:37.600Z,32.55
2023-04-16T13:54:42.129Z,36.10
2023-04-16T13:56:56.222Z,33.65
2023-04-16T13:58:59.081Z,33.10
2023-04-16T14:01:01.850Z,35.22
2023-04-16T14:03:07.069Z,31.65
2023-04-16T14:05:10.294Z,42.13
2023-04-16T14:07:21.445Z,45.15
2023-04-16T14:09:26.705Z,43.30
2023-04-16T14:11:29.394Z,33.22
2023-04-16T14:13:32.176Z,30.95
2023-04-16T14:15:35.074Z,36.50
2023-04-16T14:17:38.035Z,26.52
2023-04-16T14:19:45.794Z,41.60
2023-04-16T14:21:48.524Z,35.03
2023-04-16T14:23:51.687Z,37.03
2023-04-16T14:25:57.720Z,41.60
2023-04-16T14:28:01.451Z,29.95
2023-04-16T14:30:05.658Z,30.95
2023-04-16T14:32:12.662Z,30.60
2023-04-16T14:34:15.407Z,31.85
2023-04-16T14:36:23.344Z,87.03
2023-04-16T14:38:27.355Z,27.77
2023-04-16T14:40:30.271Z,26.80
2023-04-16T14:42:37.033Z,31.05
2023-04-16T14:44:39.811Z,35.88
2023-04-16T14:46:42.900Z,29.80
2023-04-16T14:48:47.106Z,27.30
2023-04-16T14:52:53.910Z,23.70
2023-04-16T14:56:58.997Z,23.17
2023-04-16T14:59:04.276Z,27.50
2023-04-16T15:01:06.908Z,33.47
2023-04-16T15:03:09.756Z,23.75
2023-04-16T15:05:18.216Z,34.97
2023-04-16T15:07:21.440Z,29.77
2023-04-16T15:09:24.202Z,38.08
2023-04-16T15:11:30.420Z,25.77
2023-04-16T15:13:35.909Z,32.53
2023-04-16T15:15:41.239Z,33.45
2023-04-16T15:17:44.154Z,26.40
2023-04-16T15:19:46.894Z,28.38
2023-04-16T15:21:49.552Z,28.27
2023-04-16T15:23:52.297Z,28.60
2023-04-16T15:25:55.061Z,33.10
2023-04-16T15:27:57.776Z,33.03
2023-04-16T15:30:00.625Z,23.02
2023-04-16T15:32:07.559Z,24.92
2023-04-16T15:34:14.269Z,52.05
2023-04-16T15:36:17.041Z,31.30
2023-04-16T15:38:21.576Z,32.25
2023-04-16T15:40:26.591Z,30.23
2023-04-16T15:42:29.328Z,30.50
2023-04-16T15:44:34.545Z,43.70
2023-04-16T15:46:39.776Z,30.63
2023-04-16T15:48:45.274Z,32.63
2023-04-16T15:50:48.452Z,37.28
2023-04-16T15:52:54.145Z,45.63
2023-04-16T15:54:57.191Z,36.42
2023-04-16T15:57:02.774Z,28.85
2023-04-16T15:59:05.490Z,34.75
2023-04-16T16:01:12.772Z,34.03
2023-04-16T16:03:15.954Z,27.30
2023-04-16T16:05:21.456Z,26.77
2023-04-16T16:07:26.540Z,30.08
2023-04-16T16:09:29.270Z,31.35
2023-04-16T16:11:32.827Z,36.70
2023-04-16T16:13:37.367Z,33.22
2023-04-16T16:15:41.696Z,37.67
2023-04-16T16:17:44.490Z,29.30
2023-04-16T16:19:49.516Z,43.00
2023-04-16T16:21:54.761Z,35.28
2023-04-16T16:23:58.229Z,35.20
2023-04-16T16:26:06.389Z,33.38
2023-04-16T16:28:11.974Z,35.35
2023-04-16T16:30:15.924Z,36.33
2023-04-16T16:32:18.667Z,34.22
2023-04-16T16:34:22.250Z,39.08
2023-04-16T16:36:25.207Z,25.15
2023-04-16T16:38:30.652Z,35.65
2023-04-16T16:40:33.417Z,35.97
2023-04-16T16:42:36.501Z,33.53
2023-04-16T16:44:39.151Z,38.65
2023-04-16T16:46:41.913Z,36.70
2023-04-16T16:48:47.315Z,35.78
2023-04-16T16:50:50.068Z,38.30
2023-04-16T16:52:53.109Z,35.72
2023-04-16T16:55:01.494Z,35.95
2023-04-16T16:57:06.494Z,43.53
2023-04-16T16:59:12.694Z,35.08
2023-04-16T17:01:16.007Z,41.33
2023-04-16T17:03:18.737Z,39.97
2023-04-16T17:05:21.773Z,37.15
2023-04-16T17:07:30.298Z,36.17
2023-04-16T17:09:33.189Z,39.05
2023-04-16T17:11:41.334Z,37.38
2023-04-16T17:13:44.214Z,37.33
2023-04-16T17:15:47.035Z,40.92
2023-04-16T17:17:50.163Z,31.25
2023-04-16T17:19:55.672Z,39.85
2023-04-16T17:21:58.666Z,40.83
2023-04-16T17:24:01.607Z,41.03
2023-04-16T17:26:04.513Z,41.90
2023-04-16T17:28:09.916Z,37.10
2023-04-16T17:30:13.221Z,39.88
2023-04-16T17:32:16.123Z,35.47
2023-04-16T17:34:22.340Z,40.38
2023-04-16T17:36:27.594Z,40.80
2023-04-16T17:38:30.317Z,35.40
2023-04-16T17:40:34.268Z,39.22
2023-04-16T17:42:37.253Z,18.88
2023-04-16T17:44:45.193Z,37.65
2023-04-16T17:46:50.635Z,49.53
2023-04-16T17:48:53.512Z,44.03
2023-04-16T17:50:56.362Z,40.83
2023-04-16T17:53:05.849Z,40.38
2023-04-16T17:55:11.978Z,57.88
2023-04-16T17:57:14.784Z,35.65
2023-04-16T17:59:17.439Z,39.50
2023-04-16T18:01:24.128Z,35.88
2023-04-16T18:03:27.400Z,34.42
2023-04-16T18:05:31.302Z,33.42
2023-04-16T18:07:34.785Z,36.22
2023-04-16T18:09:37.594Z,38.45
2023-04-16T18:11:41.091Z,31.13
2023-04-16T18:13:47.078Z,32.43
2023-04-16T18:15:49.969Z,37.33
2023-04-16T18:17:55.913Z,37.92
2023-04-16T18:20:01.181Z,34.90
2023-04-16T18:22:06.120Z,36.10
2023-04-16T18:24:11.628Z,36.88
2023-04-16T18:26:18.372Z,37.47
2023-04-16T18:28:24.600Z,36.97
2023-04-16T18:30:28.243Z,33.85
2023-04-16T18:32:31.988Z,35.47
2023-04-16T18:34:38.015Z,33.63
2023-04-16T18:36:41.707Z,39.90
2023-04-16T18:38:59.361Z,36.75
2023-04-16T18:41:03.660Z,32.42
2023-04-16T18:43:06.348Z,33.28
2023-04-16T18:45:14.036Z,33.95
2023-04-16T18:47:18.690Z,32.03
2023-04-16T18:49:27.076Z,35.00
2023-04-16T18:51:34.556Z,36.70
2023-04-16T18:53:39.394Z,37.08
2023-04-16T18:55:42.148Z,33.83
2023-04-16T18:57:44.832Z,36.88
2023-04-16T18:59:50.487Z,35.13
2023-04-16T19:01:53.377Z,35.63
2023-04-16T19:03:56.664Z,28.17
2023-04-16T19:05:59.357Z,33.30
2023-04-16T19:08:05.177Z,30.23
2023-04-16T19:10:09.300Z,31.10
2023-04-16T19:12:12.067Z,34.38
2023-04-16T19:14:14.798Z,35.42
2023-04-16T19:16:17.549Z,34.08
2023-04-16T19:18:21.628Z,36.03
2023-04-16T19:20:26.147Z,33.55
2023-04-16T19:22:28.922Z,33.88
2023-04-16T19:24:35.199Z,35.45
2023-04-16T19:26:37.982Z,34.85
2023-04-16T19:28:42.550Z,34.67
2023-04-16T19:30:46.986Z,33.25
2023-04-16T19:32:49.881Z,33.92
2023-04-16T19:34:54.623Z,35.35
2023-04-16T19:36:59.704Z,34.13
2023-04-16T19:39:02.845Z,34.80
2023-04-16T19:41:08.295Z,37.33
2023-04-16T19:43:15.803Z,34.33
2023-04-16T19:45:18.928Z,50.90
2023-04-16T19:47:21.952Z,32.85
2023-04-16T19:49:27.961Z,33.10
2023-04-16T19:51:32.082Z,33.63
2023-04-16T19:53:35.103Z,41.10
2023-04-16T19:55:40.057Z,33.17
2023-04-16T19:57:48.000Z,37.40
2023-04-16T19:59:55.087Z,33.30
2023-04-16T20:01:58.086Z,34.85
2023-04-16T20:04:00.871Z,42.70
2023-04-16T20:06:05.653Z,35.25
2023-04-16T20:08:08.939Z,45.92
2023-04-16T20:10:12.024Z,36.37
2023-04-16T20:12:17.340Z,37.38
2023-04-16T20:14:22.693Z,33.95
2023-04-16T20:16:25.461Z,35.28
2023-04-16T20:18:30.395Z,40.15
2023-04-16T20:20:35.634Z,28.98
2023-04-16T20:22:38.511Z,27.27
2023-04-16T20:24:49.081Z,33.88
2023-04-16T20:26:51.936Z,29.83
2023-04-16T20:28:56.307Z,34.38
2023-04-16T20:31:01.895Z,38.85
2023-04-16T20:33:06.917Z,31.70
2023-04-16T20:35:11.628Z,35.55
2023-04-16T20:37:15.206Z,37.17
2023-04-16T20:39:20.553Z,37.58
2023-04-16T20:41:25.335Z,38.28
2023-04-16T20:43:29.825Z,40.38
2023-04-16T20:45:38.264Z,38.20
2023-04-16T20:47:45.076Z,36.40
2023-04-16T20:49:48.060Z,35.42
2023-04-16T20:51:53.852Z,38.28
2023-04-16T20:53:58.477Z,38.17
2023-04-16T20:56:01.171Z,39.03
2023-04-16T20:58:05.929Z,34.80
2023-04-16T21:00:12.287Z,38.03
2023-04-16T21:02:15.253Z,36.25
2023-04-16T21:04:21.006Z,38.92
2023-04-16T21:06:23.957Z,37.42
2023-04-16T21:08:26.647Z,38.42
2023-04-16T21:10:31.198Z,36.53
2023-04-16T21:12:33.858Z,34.65
2023-04-16T21:14:38.212Z,36.53
2023-04-16T21:18:46.101Z,33.38
2023-04-16T21:20:51.357Z,36.35
2023-04-16T21:22:56.993Z,36.05
2023-04-16T21:24:59.787Z,35.97
2023-04-16T21:27:02.552Z,38.10
2023-04-16T21:29:05.361Z,38.13
2023-04-16T21:31:08.066Z,36.70
2023-04-16T21:33:13.040Z,45.47
2023-04-16T21:35:16.258Z,37.63
2023-04-16T21:37:22.427Z,35.45
2023-04-16T21:39:27.977Z,33.50
2023-04-16T21:41:30.700Z,35.22
2023-04-16T21:43:33.528Z,34.63
2023-04-16T21:45:36.302Z,38.53
2023-04-16T21:47:39.304Z,37.13
2023-04-16T21:49:42.669Z,36.30
2023-04-16T21:51:46.490Z,36.63
2023-04-16T21:53:51.986Z,35.60
2023-04-16T21:55:54.892Z,36.78
2023-04-16T21:57:57.565Z,42.05
2023-04-16T22:00:00.262Z,39.60
2023-04-16T22:02:03.827Z,36.77
2023-04-16T22:04:07.860Z,37.05
2023-04-16T22:06:11.741Z,38.92
2023-04-16T22:08:24.110Z,36.08
2023-04-16T22:10:31.248Z,37.08
2023-04-16T22:12:35.874Z,39.30
2023-04-16T22:14:43.966Z,37.03
2023-04-16T22:16:51.858Z,38.67
2023-04-16T22:18:55.255Z,35.13
2023-04-16T22:21:02.402Z,39.17
2023-04-16T22:23:05.136Z,38.33
2023-04-16T22:25:08.554Z,39.15
2023-04-16T22:27:13.952Z,39.47
2023-04-16T22:29:17.970Z,38.88
2023-04-16T22:31:20.654Z,38.17
2023-04-16T22:33:23.411Z,38.97
2023-04-16T22:35:26.162Z,46.58
2023-04-16T22:37:29.682Z,39.42
2023-04-16T22:39:32.483Z,38.10
2023-04-16T22:41:37.994Z,37.50
2023-04-16T22:43:43.353Z,40.70
2023-04-16T22:45:46.604Z,39.10
2023-04-16T22:47:49.441Z,40.63
2023-04-16T22:49:53.702Z,37.92
2023-04-16T22:51:56.482Z,37.95
2023-04-16T22:53:59.146Z,37.92
2023-04-16T22:56:03.288Z,38.65
2023-04-16T22:58:05.951Z,38.63
2023-04-16T23:00:16.930Z,40.55
2023-04-16T23:02:20.026Z,39.40
2023-04-16T23:04:23.070Z,38.63
2023-04-16T23:06:27.413Z,37.60
2023-04-16T23:10:32.657Z,36.83
2023-04-16T23:12:37.619Z,39.17
2023-04-16T23:14:49.061Z,41.42
2023-04-16T23:16:54.434Z,37.95
2023-04-16T23:18:57.898Z,41.75
2023-04-16T23:21:00.708Z,41.53
2023-04-16T23:23:03.572Z,41.45
2023-04-16T23:25:08.890Z,41.28
2023-04-16T23:27:12.744Z,45.97
2023-04-16T23:29:15.690Z,42.45
2023-04-16T23:31:18.472Z,43.10
2023-04-16T23:33:24.040Z,42.55
2023-04-16T23:35:26.796Z,40.03
2023-04-16T23:37:30.298Z,40.42
2023-04-16T23:39:32.974Z,41.35
2023-04-16T23:41:35.593Z,40.00
2023-04-16T23:43:40.306Z,42.47
2023-04-16T23:45:43.248Z,42.03
2023-04-16T23:47:46.032Z,36.97
2023-04-16T23:49:51.339Z,40.47
2023-04-16T23:51:56.574Z,39.30
2023-04-16T23:53:59.460Z,39.60
2023-04-16T23:56:02.542Z,45.33
2023-04-16T23:58:05.164Z,44.42
